createdAt,value
2023-04-18T00:00:25.794Z,14.33
2023-04-18T00:03:02.290Z,12.63
2023-04-18T00:05:34.425Z,11.88
2023-04-18T00:08:10.313Z,10.60
2023-04-18T00:10:44.055Z,10.93
2023-04-18T00:13:18.538Z,10.78
2023-04-18T00:15:53.818Z,12.50
2023-04-18T00:18:27.941Z,10.68
2023-04-18T00:21:01.693Z,10.78
2023-04-18T00:23:35.548Z,10.10
2023-04-18T00:26:09.068Z,11.68
2023-04-18T00:28:44.008Z,13.28
2023-04-18T00:31:17.651Z,11.35
2023-04-18T00:33:51.387Z,11.55
2023-04-18T00:36:24.961Z,13.08
2023-04-18T00:38:58.505Z,14.58
2023-04-18T00:41:33.112Z,15.78
2023-04-18T00:44:07.113Z,13.62
2023-04-18T00:46:40.903Z,12.78
2023-04-18T00:49:14.597Z,10.75
2023-04-18T00:51:48.798Z,16.67
2023-04-18T00:54:23.171Z,23.38
2023-04-18T00:56:56.914Z,10.18
2023-04-18T00:59:31.211Z,20.85
2023-04-18T01:02:04.925Z,31.85
2023-04-18T01:04:40.296Z,29.45
2023-04-18T01:41:10.515Z,29.10
2023-04-18T01:43:44.101Z,12.37
2023-04-18T01:46:17.837Z,20.45
2023-04-18T01:48:51.673Z,12.55
2023-04-18T01:51:28.425Z,22.67
2023-04-18T01:54:01.993Z,21.00
2023-04-18T01:56:36.517Z,16.27
2023-04-18T01:59:12.295Z,25.45
2023-04-18T02:01:45.966Z,10.72
2023-04-18T02:04:19.594Z,17.10
2023-04-18T02:06:53.274Z,15.38
2023-04-18T02:09:26.708Z,27.90
2023-04-18T02:12:01.812Z,11.78
2023-04-18T02:14:37.796Z,19.65
2023-04-18T02:17:11.299Z,11.60
2023-04-18T02:19:44.921Z,10.93
2023-04-18T02:22:18.597Z,14.15
2023-04-18T02:24:52.150Z,14.50
2023-04-18T02:27:26.035Z,11.10
2023-04-18T02:30:01.158Z,19.30
2023-04-18T02:32:36.475Z,24.77
2023-04-18T02:35:10.728Z,12.70
2023-04-18T02:37:45.449Z,16.42
2023-04-18T02:40:19.167Z,23.32
2023-04-18T02:42:52.680Z,33.78
2023-04-18T02:45:26.317Z,16.70
2023-04-18T02:48:00.654Z,37.15
2023-04-18T02:50:35.605Z,14.10
2023-04-18T02:53:09.350Z,23.10
2023-04-18T02:55:47.626Z,12.47
2023-04-18T02:58:21.789Z,17.75
2023-04-18T03:01:03.180Z,14.25
2023-04-18T03:03:54.501Z,19.62
2023-04-18T03:06:32.376Z,18.35
2023-04-18T03:09:07.380Z,18.48
2023-04-18T03:11:42.485Z,15.60
2023-04-18T03:14:16.037Z,17.32
2023-04-18T03:16:53.869Z,30.65
2023-04-18T03:19:28.119Z,30.08
2023-04-18T03:22:02.113Z,19.07
2023-04-18T03:24:36.279Z,23.22
2023-04-18T03:27:11.602Z,20.15
2023-04-18T03:29:45.521Z,20.20
2023-04-18T03:32:20.011Z,17.48
2023-04-18T03:34:54.410Z,17.42
2023-04-18T03:37:27.981Z,13.15
2023-04-18T03:40:01.874Z,20.75
2023-04-18T03:42:35.547Z,26.27
2023-04-18T03:45:11.404Z,19.50
2023-04-18T03:47:45.373Z,24.60
2023-04-18T03:50:18.678Z,29.82
2023-04-18T03:52:53.276Z,12.60
2023-04-18T03:55:27.646Z,33.18
2023-04-18T03:58:01.575Z,27.60
2023-04-18T04:00:35.574Z,25.00
2023-04-18T04:03:11.111Z,17.62
2023-04-18T04:05:46.213Z,16.65
2023-04-18T04:08:20.781Z,11.60
2023-04-18T04:10:55.462Z,25.10
2023-04-18T04:13:29.302Z,13.00
2023-04-18T04:16:03.032Z,15.98
2023-04-18T04:18:37.300Z,14.18
2023-04-18T04:21:10.924Z,12.68
2023-04-18T04:23:51.583Z,21.62
2023-04-18T04:26:31.833Z,14.53
2023-04-18T04:29:10.252Z,13.95
2023-04-18T04:31:44.647Z,13.85
2023-04-18T04:34:25.507Z,13.78
2023-04-18T04:36:58.989Z,16.62
2023-04-18T04:39:33.130Z,11.30
2023-04-18T04:42:12.494Z,12.47
2023-04-18T04:44:47.903Z,12.50
2023-04-18T04:47:22.264Z,11.70
2023-04-18T04:49:56.212Z,11.48
2023-04-18T04:52:29.884Z,10.80
2023-04-18T04:55:03.629Z,11.15
2023-04-18T04:57:45.551Z,14.55
2023-04-18T05:00:24.401Z,11.63
2023-04-18T05:02:58.751Z,13.28
2023-04-18T05:05:32.983Z,12.28
2023-04-18T05:08:07.063Z,13.62
2023-04-18T05:10:41.108Z,12.18
2023-04-18T05:13:14.798Z,13.45
2023-04-18T05:15:48.407Z,12.82
2023-04-18T05:18:22.104Z,13.85
2023-04-18T05:20:56.041Z,10.55
2023-04-18T05:23:29.487Z,11.83
2023-04-18T05:26:02.905Z,11.80
2023-04-18T05:28:36.318Z,12.43
2023-04-18T05:31:09.844Z,12.73
2023-04-18T05:33:43.400Z,12.43
2023-04-18T05:36:17.996Z,10.38
2023-04-18T05:38:51.722Z,11.25
2023-04-18T05:41:25.138Z,12.40
2023-04-18T05:44:05.342Z,11.50
2023-04-18T05:46:34.435Z,12.68
2023-04-18T05:49:08.125Z,13.55
2023-04-18T05:51:42.255Z,12.95
2023-04-18T05:54:16.289Z,12.70
2023-04-18T05:56:50.117Z,12.25
2023-04-18T05:59:24.408Z,12.55
2023-04-18T06:01:58.536Z,11.85
2023-04-18T06:04:32.272Z,12.63
2023-04-18T06:07:06.438Z,12.20
2023-04-18T06:09:40.128Z,12.15
2023-04-18T06:12:13.761Z,12.75
2023-04-18T06:14:47.540Z,12.05
2023-04-18T06:17:21.493Z,12.25
2023-04-18T06:19:55.180Z,11.90
2023-04-18T06:22:28.642Z,11.83
2023-04-18T06:25:02.451Z,11.65
2023-04-18T06:27:36.625Z,11.85
2023-04-18T06:30:11.471Z,11.97
2023-04-18T06:32:44.990Z,12.35
2023-04-18T06:35:18.520Z,13.10
2023-04-18T06:37:52.677Z,12.05
2023-04-18T06:40:26.413Z,12.23
2023-04-18T06:42:59.652Z,12.43
2023-04-18T06:45:34.100Z,11.73
2023-04-18T06:48:10.249Z,11.35
2023-04-18T06:50:44.886Z,12.03
2023-04-18T06:53:20.624Z,12.58
2023-04-18T06:56:00.999Z,11.93
2023-04-18T06:58:34.802Z,12.93
2023-04-18T07:01:11.474Z,11.25
2023-04-18T07:03:51.295Z,11.22
2023-04-18T07:06:29.100Z,11.43
2023-04-18T07:09:03.519Z,10.78
2023-04-18T07:11:37.648Z,11.30
2023-04-18T07:14:12.417Z,12.10
2023-04-18T07:16:46.177Z,12.07
2023-04-18T07:19:19.812Z,12.78
2023-04-18T07:21:54.073Z,12.43
2023-04-18T07:24:28.788Z,12.68
2023-04-18T07:27:02.730Z,12.95
2023-04-18T07:29:34.531Z,13.22
2023-04-18T07:32:08.474Z,12.63
2023-04-18T07:34:42.836Z,11.65
2023-04-18T07:37:17.770Z,13.03
2023-04-18T07:39:51.646Z,12.65
2023-04-18T07:42:25.046Z,13.48
2023-04-18T07:45:00.724Z,12.47
2023-04-18T07:47:35.893Z,11.68
2023-04-18T07:50:11.777Z,11.55
2023-04-18T07:52:47.857Z,12.47
2023-04-18T07:55:25.119Z,12.45
2023-04-18T07:57:58.382Z,11.20
2023-04-18T08:00:32.843Z,10.45
2023-04-18T08:03:08.002Z,9.25
2023-04-18T08:05:42.324Z,9.03
2023-04-18T08:08:15.828Z,8.95
2023-04-18T08:10:49.176Z,8.88
2023-04-18T08:13:23.119Z,8.83
2023-04-18T08:15:57.109Z,10.05
2023-04-18T08:18:33.848Z,8.60
2023-04-18T08:21:08.062Z,8.40
2023-04-18T08:23:42.066Z,9.25
2023-04-18T08:26:19.564Z,8.68
2023-04-18T08:28:53.538Z,8.85
2023-04-18T08:31:27.791Z,8.15
2023-04-18T08:34:03.707Z,8.43
2023-04-18T08:36:37.213Z,8.88
2023-04-18T08:39:10.988Z,9.25
2023-04-18T08:41:46.775Z,9.10
2023-04-18T08:44:21.712Z,7.83
2023-04-18T08:46:55.175Z,8.90
2023-04-18T08:49:28.972Z,8.60
2023-04-18T08:52:04.214Z,8.88
2023-04-18T08:54:38.754Z,8.65
2023-04-18T08:57:13.892Z,7.62
2023-04-18T08:59:50.850Z,8.38
2023-04-18T09:02:24.376Z,7.75
2023-04-18T09:04:57.726Z,8.63
2023-04-18T09:07:34.554Z,8.18
2023-04-18T09:10:10.016Z,6.97
2023-04-18T09:12:48.904Z,7.97
2023-04-18T09:15:27.345Z,7.00
2023-04-18T09:18:03.419Z,7.87
2023-04-18T09:20:41.661Z,8.10
2023-04-18T09:23:17.521Z,8.43
2023-04-18T09:25:53.439Z,7.33
2023-04-18T09:28:28.865Z,9.08
2023-04-18T09:31:11.958Z,8.33
2023-04-18T09:33:49.758Z,8.38
2023-04-18T09:38:57.455Z,7.87
2023-04-18T09:41:32.774Z,8.58
2023-04-18T09:44:15.280Z,8.20
2023-04-18T09:46:49.624Z,7.92
2023-04-18T09:49:23.856Z,8.40
2023-04-18T09:51:58.093Z,8.38
2023-04-18T09:54:34.380Z,7.90
2023-04-18T09:57:10.771Z,7.58
2023-04-18T09:59:48.290Z,8.03
2023-04-18T10:04:58.720Z,7.37
2023-04-18T10:07:34.720Z,7.53
2023-04-18T10:10:10.584Z,7.70
2023-04-18T10:12:47.174Z,7.33
2023-04-18T10:15:21.907Z,7.83
2023-04-18T10:20:33.334Z,8.25
2023-04-18T10:23:38.210Z,7.15
2023-04-18T10:26:12.440Z,7.70
2023-04-18T10:28:57.228Z,7.33
2023-04-18T10:31:31.457Z,7.42
2023-04-18T10:34:08.141Z,8.43
2023-04-18T10:36:48.514Z,8.63
2023-04-18T10:39:26.304Z,6.25
2023-04-18T10:41:59.886Z,7.47
2023-04-18T10:44:33.334Z,6.87
2023-04-18T10:47:37.828Z,6.87
2023-04-18T10:50:11.929Z,6.72
2023-04-18T10:52:45.575Z,7.08
2023-04-18T10:55:24.373Z,6.33
2023-04-18T10:57:59.946Z,6.47
2023-04-18T11:00:35.318Z,6.05
2023-04-18T11:03:08.972Z,7.15
2023-04-18T11:05:42.451Z,6.90
2023-04-18T11:08:25.864Z,5.83
2023-04-18T11:11:04.271Z,6.30
2023-04-18T11:13:37.797Z,7.62
2023-04-18T11:16:13.425Z,7.22
2023-04-18T11:18:47.222Z,6.33
2023-04-18T11:21:20.686Z,6.75
2023-04-18T11:23:53.965Z,7.15
2023-04-18T11:26:30.024Z,6.45
2023-04-18T11:29:04.842Z,6.90
2023-04-18T11:31:38.661Z,6.25
2023-04-18T11:34:12.315Z,6.47
2023-04-18T11:36:45.800Z,7.42
2023-04-18T11:39:20.597Z,7.00
2023-04-18T11:41:55.869Z,6.90
2023-04-18T11:44:29.447Z,5.83
2023-04-18T11:47:03.391Z,7.08
2023-04-18T11:49:36.659Z,6.78
2023-04-18T11:52:15.292Z,6.22
2023-04-18T11:54:48.712Z,6.87
2023-04-18T11:57:29.884Z,6.55
2023-04-18T12:00:06.295Z,6.08
2023-04-18T12:02:47.029Z,6.35
2023-04-18T12:05:29.383Z,6.55
2023-04-18T12:08:10.615Z,5.75
2023-04-18T12:10:51.496Z,6.87
2023-04-18T12:13:28.875Z,7.20
2023-04-18T12:16:04.345Z,6.37
2023-04-18T12:18:39.294Z,6.58
2023-04-18T12:21:14.033Z,6.17
2023-04-18T12:23:48.291Z,6.67
2023-04-18T12:26:23.048Z,6.03
2023-04-18T12:28:56.326Z,6.83
2023-04-18T12:31:29.471Z,7.55
2023-04-18T12:34:03.030Z,6.35
2023-04-18T12:36:36.578Z,6.95
2023-04-18T12:39:10.233Z,7.22
2023-04-18T12:41:43.485Z,7.75
2023-04-18T12:44:16.916Z,7.70
2023-04-18T12:46:50.137Z,6.70
2023-04-18T12:49:23.312Z,7.28
2023-04-18T12:51:56.913Z,6.42
2023-04-18T12:54:30.457Z,7.08
2023-04-18T12:57:04.181Z,7.03
2023-04-18T12:59:37.520Z,7.53
2023-04-18T13:02:11.259Z,6.97
2023-04-18T13:04:45.247Z,7.00
2023-04-18T13:07:18.603Z,8.20
2023-04-18T13:09:52.102Z,7.15
2023-04-18T13:12:25.477Z,7.33
2023-04-18T13:14:58.946Z,8.08
2023-04-18T13:17:33.881Z,7.83
2023-04-18T13:20:10.758Z,7.90
2023-04-18T13:22:44.889Z,8.90
2023-04-18T13:25:18.375Z,8.73
2023-04-18T13:27:52.174Z,9.33
2023-04-18T13:30:25.898Z,9.53
2023-04-18T13:32:59.717Z,8.20
2023-04-18T13:35:33.396Z,10.65
2023-04-18T13:38:06.723Z,9.65
2023-04-18T13:40:40.189Z,10.95
2023-04-18T13:43:15.655Z,11.12
2023-04-18T13:45:49.513Z,10.60
2023-04-18T13:48:22.784Z,10.88
2023-04-18T13:50:58.351Z,10.80
2023-04-18T13:53:31.818Z,10.38
2023-04-18T13:56:05.307Z,11.30
2023-04-18T13:58:38.814Z,11.12
2023-04-18T14:01:14.226Z,11.40
2023-04-18T14:03:48.242Z,11.38
2023-04-18T14:06:22.076Z,12.03
2023-04-18T14:08:55.563Z,11.43
2023-04-18T14:11:29.433Z,10.70
2023-04-18T14:14:03.214Z,10.78
2023-04-18T14:16:37.119Z,11.15
2023-04-18T14:19:10.879Z,12.35
2023-04-18T14:21:44.181Z,11.55
2023-04-18T14:24:17.640Z,10.55
2023-04-18T14:26:52.911Z,12.05
2023-04-18T14:29:26.773Z,10.78
2023-04-18T14:32:00.818Z,10.58
2023-04-18T14:34:38.888Z,27.27
2023-04-18T14:37:12.326Z,10.32
2023-04-18T14:39:46.260Z,10.18
2023-04-18T14:42:19.861Z,9.60
2023-04-18T14:44:55.718Z,8.88
2023-04-18T14:47:30.773Z,9.10
2023-04-18T14:50:04.059Z,9.03
2023-04-18T14:52:37.555Z,11.30
2023-04-18T14:55:12.280Z,8.63
2023-04-18T14:57:46.004Z,9.20
2023-04-18T15:00:21.146Z,8.93
2023-04-18T15:02:54.919Z,10.03
2023-04-18T15:05:28.988Z,8.83
2023-04-18T15:08:04.447Z,9.38
2023-04-18T15:10:38.208Z,10.63
2023-04-18T15:13:12.233Z,9.90
2023-04-18T15:15:46.927Z,9.70
2023-04-18T15:18:20.957Z,9.88
2023-04-18T15:20:54.877Z,10.40
2023-04-18T15:23:28.781Z,10.43
2023-04-18T15:26:02.339Z,10.10
2023-04-18T15:28:35.637Z,10.95
2023-04-18T15:31:10.159Z,8.65
2023-04-18T15:33:43.685Z,9.80
2023-04-18T15:36:16.863Z,11.70
2023-04-18T15:38:50.168Z,10.13
2023-04-18T15:41:23.988Z,10.45
2023-04-18T15:43:57.729Z,10.50
2023-04-18T15:46:31.231Z,9.98
2023-04-18T15:49:05.238Z,9.95
2023-04-18T15:51:39.087Z,9.73
2023-04-18T15:54:12.793Z,10.53
2023-04-18T15:56:46.398Z,10.13
2023-04-18T15:59:19.829Z,11.70
2023-04-18T16:01:53.886Z,11.80
2023-04-18T16:04:27.198Z,9.90
2023-04-18T16:07:01.059Z,9.30
2023-04-18T16:09:35.100Z,11.68
2023-04-18T16:12:08.989Z,12.25
2023-04-18T16:14:42.300Z,9.40
2023-04-18T16:17:16.070Z,11.08
2023-04-18T16:19:51.957Z,10.03
2023-04-18T16:22:26.566Z,11.30
2023-04-18T16:25:00.391Z,9.95
2023-04-18T16:27:35.764Z,9.60
2023-04-18T16:30:10.985Z,8.58
2023-04-18T16:32:44.889Z,9.28
2023-04-18T16:35:18.617Z,10.15
2023-04-18T16:37:51.974Z,10.63
2023-04-18T16:40:27.602Z,10.00
2023-04-18T16:43:01.794Z,8.90
2023-04-18T16:45:35.638Z,11.57
2023-04-18T16:48:09.280Z,10.20
2023-04-18T16:50:44.675Z,9.73
2023-04-18T16:53:18.266Z,9.03
2023-04-18T16:55:53.127Z,9.75
2023-04-18T16:58:26.677Z,10.25
2023-04-18T17:01:00.055Z,8.48
2023-04-18T17:03:33.431Z,9.10
2023-04-18T17:06:08.338Z,9.28
2023-04-18T17:08:41.494Z,10.03
2023-04-18T17:11:15.477Z,11.28
2023-04-18T17:13:50.670Z,9.30
2023-04-18T17:16:24.370Z,8.85
2023-04-18T17:18:58.088Z,8.35
2023-04-18T17:21:33.381Z,10.05
2023-04-18T17:24:08.497Z,11.18
2023-04-18T17:26:41.922Z,10.75
2023-04-18T17:29:15.928Z,9.20
2023-04-18T17:31:50.059Z,9.15
2023-04-18T17:34:23.592Z,9.88
2023-04-18T17:36:59.509Z,9.63
2023-04-18T17:39:34.709Z,9.08
2023-04-18T17:42:08.450Z,8.68
2023-04-18T17:44:45.270Z,8.40
2023-04-18T17:47:19.232Z,10.23
2023-04-18T17:49:55.616Z,9.35
2023-04-18T17:52:29.685Z,9.58
2023-04-18T17:55:04.249Z,10.10
2023-04-18T17:57:37.928Z,9.95
2023-04-18T18:00:17.639Z,8.88
2023-04-18T18:02:51.306Z,9.15
2023-04-18T18:05:44.752Z,9.08
2023-04-18T18:08:20.648Z,8.73
2023-04-18T18:10:54.046Z,8.53
2023-04-18T18:13:27.920Z,9.35
2023-04-18T18:16:02.748Z,8.93
2023-04-18T18:18:36.950Z,9.65
2023-04-18T18:21:11.557Z,9.53
2023-04-18T18:23:45.353Z,8.95
2023-04-18T18:26:18.962Z,8.88
2023-04-18T18:28:52.635Z,7.72
2023-04-18T18:31:34.394Z,8.75
2023-04-18T18:34:08.340Z,10.68
2023-04-18T18:36:41.772Z,9.30
2023-04-18T18:39:16.770Z,8.98
2023-04-18T18:41:50.882Z,9.15
2023-04-18T18:44:24.243Z,8.88
2023-04-18T18:46:59.357Z,9.25
2023-04-18T18:49:32.877Z,8.33
2023-04-18T18:52:06.706Z,8.95
2023-04-18T18:54:42.781Z,8.90
2023-04-18T18:57:16.410Z,8.85
2023-04-18T18:59:50.501Z,9.23
2023-04-18T19:02:23.965Z,8.63
2023-04-18T19:04:57.575Z,8.40
2023-04-18T19:07:31.412Z,9.10
2023-04-18T19:10:05.453Z,8.53
2023-04-18T19:12:39.872Z,8.98
2023-04-18T19:15:14.319Z,9.35
2023-04-18T19:17:47.618Z,9.28
2023-04-18T19:20:22.073Z,9.43
2023-04-18T19:22:55.771Z,10.25
2023-04-18T19:25:29.372Z,9.35
2023-04-18T19:28:05.019Z,8.58
2023-04-18T19:30:38.361Z,10.38
2023-04-18T19:33:11.884Z,9.43
2023-04-18T19:35:45.620Z,9.23
2023-04-18T19:38:18.986Z,8.80
2023-04-18T19:40:52.769Z,10.00
2023-04-18T19:43:26.082Z,9.83
2023-04-18T19:46:01.303Z,10.48
2023-04-18T19:48:34.730Z,9.88
2023-04-18T19:51:08.428Z,8.90
2023-04-18T19:53:42.180Z,8.50
2023-04-18T19:56:15.644Z,8.15
2023-04-18T19:58:49.224Z,8.95
2023-04-18T20:01:24.199Z,9.75
2023-04-18T20:03:59.504Z,9.35
2023-04-18T20:06:37.219Z,9.13
2023-04-18T20:09:14.559Z,8.88
2023-04-18T20:11:49.955Z,8.73
2023-04-18T20:14:23.470Z,8.90
2023-04-18T20:16:57.131Z,9.25
2023-04-18T20:19:31.442Z,8.95
2023-04-18T20:22:10.263Z,9.03
2023-04-18T20:24:45.128Z,8.50
2023-04-18T20:27:20.676Z,8.85
2023-04-18T20:29:56.064Z,8.33
2023-04-18T20:32:29.340Z,9.00
2023-04-18T20:35:04.542Z,8.28
2023-04-18T20:37:37.600Z,8.33
2023-04-18T20:40:14.825Z,9.88
2023-04-18T20:42:52.024Z,8.80
2023-04-18T20:45:27.499Z,8.05
2023-04-18T20:48:01.847Z,8.40
2023-04-18T20:50:35.282Z,8.50
2023-04-18T20:53:08.987Z,7.85
2023-04-18T20:55:42.868Z,8.55
2023-04-18T20:58:16.966Z,8.43
2023-04-18T21:01:27.760Z,7.90
2023-04-18T21:04:01.994Z,10.43
2023-04-18T21:06:38.756Z,8.60
2023-04-18T21:09:12.457Z,7.65
2023-04-18T21:11:45.926Z,7.65
2023-04-18T21:14:20.138Z,7.45
2023-04-18T21:16:53.773Z,8.43
2023-04-18T21:19:27.542Z,7.47
2023-04-18T21:22:01.175Z,9.28
2023-04-18T21:24:34.547Z,6.97
2023-04-18T21:27:08.541Z,7.33
2023-04-18T21:29:42.166Z,6.92
2023-04-18T21:32:27.904Z,7.47
2023-04-18T21:35:01.654Z,6.80
2023-04-18T21:37:35.703Z,6.83
2023-04-18T21:40:11.727Z,6.62
2023-04-18T21:42:46.004Z,6.70
2023-04-18T21:45:21.172Z,6.12
2023-04-18T21:47:55.250Z,7.03
2023-04-18T21:50:28.687Z,6.62
2023-04-18T21:53:02.417Z,7.80
2023-04-18T21:55:35.779Z,7.20
2023-04-18T21:58:08.949Z,7.42
2023-04-18T22:00:42.572Z,7.83
2023-04-18T22:03:16.335Z,6.92
2023-04-18T22:05:52.038Z,7.15
2023-04-18T22:08:26.543Z,6.87
2023-04-18T22:11:00.423Z,7.35
2023-04-18T22:13:34.073Z,6.08
2023-04-18T22:16:09.544Z,6.67
2023-04-18T22:18:43.309Z,7.03
2023-04-18T22:21:16.765Z,6.55
2023-04-18T22:23:50.027Z,6.60
2023-04-18T22:26:23.706Z,7.00
2023-04-18T22:28:57.345Z,5.72
2023-04-18T22:31:31.057Z,6.10
2023-04-18T22:34:05.011Z,6.40
2023-04-18T22:36:38.530Z,7.03
2023-04-18T22:39:12.277Z,6.55
2023-04-18T22:41:45.592Z,6.72
2023-04-18T22:44:19.107Z,6.60
2023-04-18T22:46:54.012Z,7.45
2023-04-18T22:49:27.700Z,7.08
2023-04-18T22:52:01.552Z,6.47
2023-04-18T22:54:35.039Z,7.22
2023-04-18T22:57:08.418Z,6.60
2023-04-18T22:59:41.629Z,7.40
2023-04-18T23:02:15.542Z,7.22
2023-04-18T23:04:49.597Z,7.90
2023-04-18T23:07:23.051Z,7.08
2023-04-18T23:09:56.782Z,6.92
2023-04-18T23:12:33.336Z,6.83
2023-04-18T23:15:08.192Z,6.53
2023-04-18T23:17:41.763Z,6.72
2023-04-18T23:20:16.508Z,6.67
2023-04-18T23:22:50.209Z,6.87
2023-04-18T23:25:23.972Z,7.20
2023-04-18T23:27:57.174Z,7.35
2023-04-18T23:30:30.807Z,6.58
2023-04-18T23:33:04.097Z,8.08
2023-04-18T23:35:37.596Z,6.50
2023-04-18T23:38:13.463Z,6.80
2023-04-18T23:40:47.070Z,6.58
2023-04-18T23:43:21.034Z,7.97
2023-04-18T23:45:57.042Z,6.70
2023-04-18T23:48:33.537Z,7.50
2023-04-18T23:51:07.328Z,6.62
2023-04-18T23:53:40.805Z,7.20
2023-04-18T23:56:14.333Z,6.37
2023-04-18T23:58:47.679Z,6.80
